Time;durP1;ratioP1;P1;durP2;ratioP2;P2;SDS_P1;SDS_P2;PMS_P1;PMS_P2;Temp;Humidity;BMP_temperature;BMP_pressure;BME280_temperature;BME280_humidity;BME280_pressure;Samples;Min_cycle;Max_cycle;Signal;HPM_P1;HPM_P2
2021/03/15 00:00:54;;;;;;;;;;;1.20;98.00;;;;;;5022270;28;19913;-70
2021/03/15 00:03:20;;;;;;;;;;;1.20;98.00;;;;;;5039157;28;19944;-68
2021/03/15 00:05:46;;;;;;;;;;;1.20;98.00;;;;;;5038102;28;19913;-68
2021/03/15 00:08:11;;;;;;;;;;;1.20;98.00;;;;;;5037745;28;19913;-68
2021/03/15 00:10:37;;;;;;;;;;;1.20;98.00;;;;;;5038489;28;19913;-69
2021/03/15 00:13:03;;;;;;;;;;;1.30;98.00;;;;;;5037414;28;19924;-69
2021/03/15 00:15:29;;;;;;;;;;;1.20;98.00;;;;;;5036484;28;20368;-68
2021/03/15 00:17:55;;;;;;;;;;;1.10;98.00;;;;;;5033166;28;19970;-68
2021/03/15 00:20:21;;;;;;;;;;;0.90;98.00;;;;;;5038348;28;20256;-70
2021/03/15 00:22:47;;;;;;;;;;;0.80;98.00;;;;;;5036841;28;19913;-70
2021/03/15 00:25:14;;;;;;;;;;;0.80;98.00;;;;;;5037923;28;19921;-69
2021/03/15 00:27:40;;;;;;;;;;;0.70;98.00;;;;;;5036885;28;19921;-71
2021/03/15 00:30:09;;;;;;;;;;;0.70;98.00;;;;;;5036757;28;19920;-69
2021/03/15 00:32:35;;;;;;;;;;;0.70;98.00;;;;;;5037245;28;19921;-70
2021/03/15 00:35:01;;;;;;;;;;;0.70;98.00;;;;;;5040518;28;19925;-69
2021/03/15 00:37:27;;;;;;;;;;;0.70;98.00;;;;;;5038034;28;20324;-68
2021/03/15 00:39:53;;;;;;;;;;;0.80;98.00;;;;;;5023223;28;19913;-70
2021/03/15 00:42:19;;;;;;;;;;;0.80;98.00;;;;;;5037545;28;20324;-69
2021/03/15 00:44:44;;;;;;;;;;;0.90;98.00;;;;;;5040670;28;19960;-70
2021/03/15 00:47:10;;;;;;;;;;;0.90;98.00;;;;;;5041320;28;20336;-70
2021/03/15 00:49:36;;;;;;;;;;;0.90;98.00;;;;;;5036778;28;19913;-69
2021/03/15 00:52:01;;;;;;;;;;;1.00;98.00;;;;;;5037775;28;19913;-71
2021/03/15 00:54:27;;;;;;;;;;;1.00;98.00;;;;;;5036886;28;19917;-69
2021/03/15 00:56:52;;;;;;;;;;;1.00;98.00;;;;;;5038159;28;19949;-70
2021/03/15 00:59:18;;;;;;;;;;;1.10;98.00;;;;;;5036699;28;19999;-70
2021/03/15 01:01:43;;;;;;;;;;;1.30;98.00;;;;;;5036914;28;19917;-70
2021/03/15 01:04:10;;;;;;;;;;;1.40;98.00;;;;;;5036724;28;19913;-69
2021/03/15 01:06:35;;;;;;;;;;;1.40;98.00;;;;;;5043738;28;19920;-70
2021/03/15 01:09:01;;;;;;;;;;;1.40;98.00;;;;;;5039334;28;19917;-71
2021/03/15 01:11:27;;;;;;;;;;;1.40;98.00;;;;;;5037169;28;19975;-68
2021/03/15 01:13:52;;;;;;;;;;;1.40;98.00;;;;;;5023255;28;19952;-69
2021/03/15 01:16:18;;;;;;;;;;;1.50;98.00;;;;;;5037350;28;19917;-68
2021/03/15 01:18:44;;;;;;;;;;;1.50;98.00;;;;;;5035926;28;19960;-68
2021/03/15 01:21:13;;;;;;;;;;;1.50;98.00;;;;;;5037079;28;19917;-70
2021/03/15 01:23:39;;;;;;;;;;;1.50;98.00;;;;;;5036610;28;19921;-70
2021/03/15 01:26:05;;;;;;;;;;;1.50;98.00;;;;;;5036745;28;20329;-70
2021/03/15 01:28:30;;;;;;;;;;;1.50;98.00;;;;;;5036410;28;19917;-70
2021/03/15 01:30:56;;;;;;;;;;;1.50;98.00;;;;;;5035777;28;19960;-70
2021/03/15 01:33:21;;;;;;;;;;;1.50;98.00;;;;;;5020864;28;20337;-70
2021/03/15 01:35:48;;;;;;;;;;;1.50;98.00;;;;;;5035794;28;19913;-69
2021/03/15 01:38:16;;;;;;;;;;;1.50;98.00;;;;;;5036466;28;19913;-70
2021/03/15 01:40:42;;;;;;;;;;;1.60;98.00;;;;;;5036443;28;19921;-69
2021/03/15 01:43:07;;;;;;;;;;;1.60;98.00;;;;;;5036422;28;19917;-69
2021/03/15 01:45:33;;;;;;;;;;;1.60;98.00;;;;;;5035255;28;19924;-69
2021/03/15 01:47:59;;;;;;;;;;;1.60;98.00;;;;;;5036591;28;20027;-69
2021/03/15 01:50:25;;;;;;;;;;;1.60;98.00;;;;;;5036781;28;19913;-70
2021/03/15 01:52:52;;;;;;;;;;;1.60;98.00;;;;;;5035783;28;19936;-70
2021/03/15 01:55:18;;;;;;;;;;;1.50;98.00;;;;;;5035711;28;20035;-69
2021/03/15 01:57:45;;;;;;;;;;;1.50;98.00;;;;;;5036179;28;20004;-70
2021/03/15 02:00:12;;;;;;;;;;;1.50;98.00;;;;;;5034724;28;19917;-69
2021/03/15 02:02:39;;;;;;;;;;;1.40;98.00;;;;;;5036340;28;19913;-70
2021/03/15 02:05:05;;;;;;;;;;;1.40;98.00;;;;;;5035601;28;20317;-69
2021/03/15 02:07:31;;;;;;;;;;;1.40;98.00;;;;;;5036346;28;20003;-69
2021/03/15 02:09:58;;;;;;;;;;;1.40;98.00;;;;;;5036121;28;19945;-69
2021/03/15 02:12:35;;;;;;;;;;;1.40;98.00;;;;;;5034390;28;19920;-70
2021/03/15 02:15:17;;;;;;;;;;;1.50;98.00;;;;;;5034442;28;20332;-69
2021/03/15 02:18:03;;;;;;;;;;;1.40;98.00;;;;;;5034656;28;20230;-70
2021/03/15 02:20:50;;;;;;;;;;;1.40;98.00;;;;;;5033589;28;20003;-68
2021/03/15 02:23:51;;;;;;;;;;;1.40;98.00;;;;;;5034068;28;19964;-70
2021/03/15 02:26:26;;;;;;;;;;;1.30;98.00;;;;;;4950815;29;19950;-68
2021/03/15 02:29:10;;;;;;;;;;;1.20;98.00;;;;;;5013021;28;20313;-69
2021/03/15 02:31:38;;;;;;;;;;;1.20;98.00;;;;;;5035753;28;19921;-69
2021/03/15 02:34:10;;;;;;;;;;;1.20;98.00;;;;;;5035329;28;20203;-68
2021/03/15 02:36:38;;;;;;;;;;;1.20;98.00;;;;;;5019253;28;20214;-68
2021/03/15 02:39:05;;;;;;;;;;;1.20;98.00;;;;;;5038117;28;20003;-69
2021/03/15 02:41:31;;;;;;;;;;;1.20;98.00;;;;;;5034922;28;19925;-68
2021/03/15 02:44:00;;;;;;;;;;;1.30;98.00;;;;;;5039201;28;19920;-68
2021/03/15 02:46:28;;;;;;;;;;;1.40;98.00;;;;;;5034578;28;20308;-68
2021/03/15 02:48:55;;;;;;;;;;;1.50;98.00;;;;;;5035543;28;19956;-68
2021/03/15 02:51:23;;;;;;;;;;;1.60;98.00;;;;;;5035053;28;20329;-68
2021/03/15 02:53:49;;;;;;;;;;;1.60;98.00;;;;;;5035087;28;19917;-69
2021/03/15 02:56:18;;;;;;;;;;;1.60;98.00;;;;;;5039475;28;20297;-68
2021/03/15 02:58:44;;;;;;;;;;;1.60;98.00;;;;;;5034834;28;19917;-69
2021/03/15 03:01:09;;;;;;;;;;;1.60;98.00;;;;;;5033798;28;20324;-69
2021/03/15 03:03:36;;;;;;;;;;;1.60;98.00;;;;;;5035275;28;19927;-68
2021/03/15 03:06:01;;;;;;;;;;;1.60;98.00;;;;;;5034927;28;19917;-68
2021/03/15 03:08:29;;;;;;;;;;;1.60;98.00;;;;;;5035456;28;19921;-68
2021/03/15 03:10:55;;;;;;;;;;;1.60;98.00;;;;;;5035016;28;19914;-69
2021/03/15 03:13:22;;;;;;;;;;;1.60;98.00;;;;;;5034967;28;20241;-69
2021/03/15 03:15:48;;;;;;;;;;;1.70;98.00;;;;;;5032855;28;20265;-69
2021/03/15 03:18:15;;;;;;;;;;;1.70;98.00;;;;;;5039741;28;19913;-67
2021/03/15 03:20:44;;;;;;;;;;;1.80;98.00;;;;;;5034889;28;20261;-68
2021/03/15 03:23:10;;;;;;;;;;;1.80;98.00;;;;;;5035328;28;19914;-69
2021/03/15 03:25:36;;;;;;;;;;;1.80;98.00;;;;;;5033907;28;20337;-69
2021/03/15 03:28:03;;;;;;;;;;;1.80;98.00;;;;;;5027946;28;19913;-68
2021/03/15 03:30:30;;;;;;;;;;;1.80;98.00;;;;;;5035155;28;19913;-68
2021/03/15 03:32:57;;;;;;;;;;;1.80;98.00;;;;;;5044691;28;20017;-68
2021/03/15 03:35:22;;;;;;;;;;;1.90;98.00;;;;;;5038107;28;19917;-67
2021/03/15 03:37:48;;;;;;;;;;;1.90;98.00;;;;;;5038855;28;19966;-69
2021/03/15 03:40:14;;;;;;;;;;;1.80;98.00;;;;;;5038701;28;19921;-69
2021/03/15 03:42:40;;;;;;;;;;;1.80;98.00;;;;;;5038546;28;19913;-68
2021/03/15 03:45:06;;;;;;;;;;;1.80;98.00;;;;;;5037203;28;20320;-68
2021/03/15 03:47:36;;;;;;;;;;;1.90;98.00;;;;;;5037862;28;19920;-68
2021/03/15 03:50:04;;;;;;;;;;;1.90;98.00;;;;;;5043141;28;19913;-69
2021/03/15 03:52:30;;;;;;;;;;;1.90;98.00;;;;;;5032029;28;19932;-69
2021/03/15 03:54:58;;;;;;;;;;;1.90;98.00;;;;;;5038150;28;19913;-69
2021/03/15 03:57:32;;;;;;;;;;;1.90;98.00;;;;;;5038435;28;20004;-68
2021/03/15 04:00:01;;;;;;;;;;;1.90;98.00;;;;;;5036700;28;20007;-68
2021/03/15 04:02:27;;;;;;;;;;;2.00;98.00;;;;;;5038675;28;19913;-69
2021/03/15 04:05:02;;;;;;;;;;;2.00;98.00;;;;;;5038350;28;19928;-68
2021/03/15 04:07:29;;;;;;;;;;;2.00;98.00;;;;;;5035656;28;19913;-67
2021/03/15 04:10:03;;;;;;;;;;;2.10;98.00;;;;;;5038807;28;19909;-68
2021/03/15 04:12:29;;;;;;;;;;;2.10;98.00;;;;;;5037365;28;20330;-67
2021/03/15 04:14:56;;;;;;;;;;;2.10;98.00;;;;;;5036698;28;19951;-69
2021/03/15 04:17:24;;;;;;;;;;;2.10;98.00;;;;;;5034423;28;19987;-70
2021/03/15 04:20:08;;;;;;;;;;;2.10;98.00;;;;;;5033973;28;20314;-69
2021/03/15 04:22:36;;;;;;;;;;;2.10;98.00;;;;;;5032193;28;19916;-70
2021/03/15 04:25:02;;;;;;;;;;;2.20;98.00;;;;;;5038044;28;19913;-69
2021/03/15 04:27:29;;;;;;;;;;;2.30;98.00;;;;;;5037196;28;19913;-68
2021/03/15 04:29:57;;;;;;;;;;;2.30;98.00;;;;;;5008247;28;20342;-70
2021/03/15 04:32:24;;;;;;;;;;;2.30;98.00;;;;;;5037823;28;19971;-69
2021/03/15 04:34:50;;;;;;;;;;;2.20;98.00;;;;;;5037747;28;20272;-70
2021/03/15 04:37:16;;;;;;;;;;;2.30;98.00;;;;;;5037348;28;19913;-69
2021/03/15 04:39:42;;;;;;;;;;;2.30;98.00;;;;;;5053469;28;19909;-68
2021/03/15 04:42:08;;;;;;;;;;;2.30;98.00;;;;;;5051416;28;20007;-70
2021/03/15 04:44:34;;;;;;;;;;;2.20;98.00;;;;;;5039301;28;19952;-70
2021/03/15 04:47:02;;;;;;;;;;;2.20;98.00;;;;;;5037243;28;19920;-69
2021/03/15 04:49:28;;;;;;;;;;;2.30;98.00;;;;;;5037545;28;19940;-69
2021/03/15 04:51:54;;;;;;;;;;;2.30;98.00;;;;;;5049660;28;19912;-69
2021/03/15 04:54:19;;;;;;;;;;;2.30;98.00;;;;;;5022807;28;19928;-70
2021/03/15 04:56:45;;;;;;;;;;;2.30;98.00;;;;;;5036918;28;20007;-70
2021/03/15 04:59:12;;;;;;;;;;;2.30;98.00;;;;;;5029634;28;19913;-68
2021/03/15 05:01:40;;;;;;;;;;;2.30;98.00;;;;;;5036961;28;19918;-70
2021/03/15 05:04:08;;;;;;;;;;;2.30;98.00;;;;;;5041428;28;19917;-70
2021/03/15 05:06:35;;;;;;;;;;;2.30;98.00;;;;;;5041250;28;20324;-69
2021/03/15 05:09:02;;;;;;;;;;;2.30;98.00;;;;;;5020639;28;20325;-68
2021/03/15 05:11:30;;;;;;;;;;;2.30;98.00;;;;;;5037034;28;19920;-69
2021/03/15 05:13:57;;;;;;;;;;;2.30;98.00;;;;;;5040276;28;19928;-69
2021/03/15 05:16:23;;;;;;;;;;;2.30;98.00;;;;;;5035551;28;19955;-68
2021/03/15 05:18:52;;;;;;;;;;;2.30;98.00;;;;;;5038646;28;20245;-68
2021/03/15 05:21:18;;;;;;;;;;;2.30;98.00;;;;;;5050334;28;19913;-70
2021/03/15 05:23:44;;;;;;;;;;;2.20;98.00;;;;;;5036762;28;19921;-69
2021/03/15 05:26:10;;;;;;;;;;;2.10;98.00;;;;;;5036136;28;19917;-70
2021/03/15 05:28:40;;;;;;;;;;;2.10;98.00;;;;;;5038451;28;19971;-69
2021/03/15 05:31:06;;;;;;;;;;;2.00;98.00;;;;;;5034807;28;20389;-70
2021/03/15 05:33:35;;;;;;;;;;;1.90;98.00;;;;;;5035414;28;20019;-69
2021/03/15 05:36:01;;;;;;;;;;;1.70;98.00;;;;;;5036693;28;19920;-69
2021/03/15 05:38:27;;;;;;;;;;;1.70;98.00;;;;;;5034703;28;19913;-70
2021/03/15 05:40:53;;;;;;;;;;;1.70;98.00;;;;;;5033387;28;20472;-70
2021/03/15 05:43:31;;;;;;;;;;;1.80;98.00;;;;;;5038099;28;20194;-69
2021/03/15 05:46:16;;;;;;;;;;;1.70;98.00;;;;;;5046481;28;19913;-69
2021/03/15 05:49:00;;;;;;;;;;;1.80;98.00;;;;;;5033852;28;19940;-69
2021/03/15 05:51:41;;;;;;;;;;;1.90;98.00;;;;;;5036238;28;19913;-70
2021/03/15 05:54:16;;;;;;;;;;;1.90;98.00;;;;;;5036286;28;20369;-70
2021/03/15 05:56:56;;;;;;;;;;;1.90;98.00;;;;;;5047631;28;19913;-70
2021/03/15 05:59:40;;;;;;;;;;;1.90;98.00;;;;;;5042139;28;19913;-69
2021/03/15 06:02:06;;;;;;;;;;;1.90;98.00;;;;;;5032337;28;19913;-70
2021/03/15 06:04:32;;;;;;;;;;;1.90;98.00;;;;;;5034492;28;20059;-70
2021/03/15 06:07:01;;;;;;;;;;;2.00;98.00;;;;;;5031147;28;20003;-68
2021/03/15 06:09:29;;;;;;;;;;;2.00;98.00;;;;;;5036015;28;19920;-69
2021/03/15 06:12:04;;;;;;;;;;;2.00;98.00;;;;;;5034614;28;20010;-69
2021/03/15 06:14:30;;;;;;;;;;;2.10;98.00;;;;;;5036572;28;19921;-70
2021/03/15 06:16:56;;;;;;;;;;;2.10;98.00;;;;;;5041718;28;19917;-70
2021/03/15 06:19:24;;;;;;;;;;;2.10;98.00;;;;;;5036160;28;20010;-68
2021/03/15 06:21:50;;;;;;;;;;;2.20;98.00;;;;;;5034842;28;19949;-68
2021/03/15 06:24:16;;;;;;;;;;;2.20;98.00;;;;;;5036251;28;20314;-70
2021/03/15 06:26:43;;;;;;;;;;;2.20;98.00;;;;;;5035716;28;19913;-69
2021/03/15 06:29:08;;;;;;;;;;;2.10;98.00;;;;;;5017543;28;20055;-70
2021/03/15 06:31:34;;;;;;;;;;;2.00;98.00;;;;;;5035755;28;20302;-70
2021/03/15 06:34:00;;;;;;;;;;;1.80;98.00;;;;;;5036211;28;19960;-69
2021/03/15 06:36:29;;;;;;;;;;;1.70;98.00;;;;;;5035255;28;19955;-70
2021/03/15 06:38:55;;;;;;;;;;;1.60;98.00;;;;;;5035815;28;19913;-70
2021/03/15 06:41:22;;;;;;;;;;;1.60;98.00;;;;;;5034662;28;20355;-70
2021/03/15 06:43:47;;;;;;;;;;;1.60;98.00;;;;;;5031487;28;19947;-70
2021/03/15 06:46:15;;;;;;;;;;;1.70;98.00;;;;;;5035691;28;19944;-70
2021/03/15 06:48:41;;;;;;;;;;;1.70;98.00;;;;;;5035683;28;19936;-69
2021/03/15 06:51:07;;;;;;;;;;;1.80;98.00;;;;;;5035950;28;20313;-70
2021/03/15 06:53:36;;;;;;;;;;;1.90;98.00;;;;;;5034707;28;20252;-71
2021/03/15 06:56:02;;;;;;;;;;;1.90;98.00;;;;;;5034767;28;20368;-70
2021/03/15 06:58:28;;;;;;;;;;;1.90;98.00;;;;;;5030231;28;20008;-68
2021/03/15 07:01:13;;;;;;;;;;;1.90;98.00;;;;;;5033448;28;19944;-69
2021/03/15 07:03:39;;;;;;;;;;;1.90;98.00;;;;;;5035727;28;19920;-69
2021/03/15 07:06:06;;;;;;;;;;;2.00;98.00;;;;;;5038077;28;19973;-68
2021/03/15 07:08:31;;;;;;;;;;;2.00;98.00;;;;;;5039832;28;19917;-70
2021/03/15 07:10:59;;;;;;;;;;;2.00;98.00;;;;;;5039144;28;19913;-70
2021/03/15 07:13:26;;;;;;;;;;;2.10;98.00;;;;;;5039084;28;19971;-70
2021/03/15 07:15:52;;;;;;;;;;;2.10;98.00;;;;;;5038355;28;19913;-69
2021/03/15 07:18:22;;;;;;;;;;;2.20;98.00;;;;;;5039328;28;19917;-70
2021/03/15 07:20:55;;;;;;;;;;;2.20;98.00;;;;;;5039353;28;19913;-71
2021/03/15 07:23:39;;;;;;;;;;;2.20;98.00;;;;;;5039224;28;20306;-70
2021/03/15 07:26:22;;;;;;;;;;;2.30;98.00;;;;;;5024330;28;19917;-70
2021/03/15 07:28:51;;;;;;;;;;;2.30;98.00;;;;;;5017576;28;19913;-69
2021/03/15 07:31:23;;;;;;;;;;;2.30;98.00;;;;;;5020628;28;19945;-69
2021/03/15 07:33:54;;;;;;;;;;;2.40;98.00;;;;;;5038427;28;19917;-70
2021/03/15 07:36:20;;;;;;;;;;;2.50;98.00;;;;;;5039229;28;19924;-69
2021/03/15 07:38:46;;;;;;;;;;;2.60;98.00;;;;;;5039199;28;20309;-69
2021/03/15 07:41:12;;;;;;;;;;;2.60;98.00;;;;;;5037490;28;19947;-69
2021/03/15 07:43:37;;;;;;;;;;;2.80;98.00;;;;;;5038289;28;19913;-69
2021/03/15 07:46:15;;;;;;;;;;;2.80;98.00;;;;;;5035914;28;20000;-69
2021/03/15 07:48:41;;;;;;;;;;;2.60;98.00;;;;;;5039058;28;19978;-69
2021/03/15 07:51:09;;;;;;;;;;;2.50;98.00;;;;;;5038426;28;19917;-69
2021/03/15 07:53:37;;;;;;;;;;;2.40;98.00;;;;;;5038778;28;20006;-69
2021/03/15 07:56:03;;;;;;;;;;;2.40;98.00;;;;;;5038904;28;19914;-69
2021/03/15 07:58:29;;;;;;;;;;;2.40;98.00;;;;;;5038755;28;19920;-68
2021/03/15 08:00:55;;;;;;;;;;;2.30;98.00;;;;;;5037244;28;19952;-69
2021/03/15 08:03:22;;;;;;;;;;;2.30;98.00;;;;;;5037789;28;20310;-69
2021/03/15 08:05:48;;;;;;;;;;;2.30;98.00;;;;;;5035557;28;19920;-69
2021/03/15 08:08:14;;;;;;;;;;;2.40;98.00;;;;;;5034560;28;19921;-68
2021/03/15 08:10:40;;;;;;;;;;;2.40;98.00;;;;;;5034851;28;19996;-69
2021/03/15 08:13:06;;;;;;;;;;;2.40;98.00;;;;;;5037409;28;20621;-69
2021/03/15 08:15:32;;;;;;;;;;;2.50;98.00;;;;;;5033447;28;19957;-69
2021/03/15 08:17:58;;;;;;;;;;;2.60;98.00;;;;;;5034162;28;19921;-69
2021/03/15 08:20:24;;;;;;;;;;;2.60;98.00;;;;;;5033788;28;19921;-68
2021/03/15 08:22:51;;;;;;;;;;;2.80;98.00;;;;;;5033901;28;19921;-69
2021/03/15 08:25:18;;;;;;;;;;;2.90;98.00;;;;;;5035059;28;19920;-68
2021/03/15 08:27:44;;;;;;;;;;;2.80;98.00;;;;;;5030289;28;19921;-69
2021/03/15 08:30:20;;;;;;;;;;;2.80;98.00;;;;;;5032594;28;20306;-69
2021/03/15 08:32:46;;;;;;;;;;;2.80;98.00;;;;;;5037295;28;19913;-68
2021/03/15 08:35:15;;;;;;;;;;;2.70;98.00;;;;;;5037768;28;20221;-69
2021/03/15 08:38:00;;;;;;;;;;;2.60;98.00;;;;;;5038388;28;19988;-69
2021/03/15 08:40:37;;;;;;;;;;;2.60;98.00;;;;;;5037540;28;19956;-68
2021/03/15 08:43:21;;;;;;;;;;;2.60;98.00;;;;;;5037710;28;20458;-68
2021/03/15 08:46:00;;;;;;;;;;;2.60;98.00;;;;;;5036459;28;19913;-67
2021/03/15 08:48:37;;;;;;;;;;;2.50;98.00;;;;;;5030121;28;20221;-69
2021/03/15 08:51:23;;;;;;;;;;;2.40;98.00;;;;;;5033173;28;19960;-68
2021/03/15 08:53:49;;;;;;;;;;;2.40;98.00;;;;;;5035308;28;19917;-68
2021/03/15 08:56:18;;;;;;;;;;;2.50;98.00;;;;;;5037603;28;19913;-68
2021/03/15 08:58:43;;;;;;;;;;;2.60;98.00;;;;;;5019255;28;20000;-69
2021/03/15 09:01:09;;;;;;;;;;;2.60;98.00;;;;;;5035964;28;20005;-68
2021/03/15 09:03:54;;;;;;;;;;;2.60;98.00;;;;;;5036446;28;20329;-68
2021/03/15 09:06:41;;;;;;;;;;;2.40;98.00;;;;;;5037455;28;19967;-69
2021/03/15 09:09:07;;;;;;;;;;;2.30;98.00;;;;;;5037474;28;19913;-69
2021/03/15 09:11:38;;;;;;;;;;;2.30;98.00;;;;;;5037377;28;19941;-70
2021/03/15 09:14:17;;;;;;;;;;;2.40;98.00;;;;;;5036040;28;19964;-69
2021/03/15 09:16:46;;;;;;;;;;;2.40;98.00;;;;;;5037627;28;19913;-68
2021/03/15 09:19:18;;;;;;;;;;;2.50;98.00;;;;;;5021312;28;19955;-68
2021/03/15 09:21:45;;;;;;;;;;;2.60;98.00;;;;;;5020006;28;19960;-68
2021/03/15 09:24:29;;;;;;;;;;;2.60;98.00;;;;;;5037113;28;20020;-68
2021/03/15 09:26:55;;;;;;;;;;;2.60;98.00;;;;;;5036828;28;19913;-69
2021/03/15 09:29:20;;;;;;;;;;;2.60;98.00;;;;;;5035410;28;20378;-69
2021/03/15 09:31:59;;;;;;;;;;;2.60;98.00;;;;;;5036652;28;19913;-69
2021/03/15 09:34:24;;;;;;;;;;;2.70;98.00;;;;;;5036328;28;19943;-69
2021/03/15 09:36:50;;;;;;;;;;;2.80;98.00;;;;;;5036951;28;19987;-70
2021/03/15 09:39:18;;;;;;;;;;;2.80;98.00;;;;;;5036955;28;19915;-69
2021/03/15 09:41:45;;;;;;;;;;;2.90;98.00;;;;;;5036475;28;20307;-70
2021/03/15 09:44:11;;;;;;;;;;;2.90;98.00;;;;;;5035720;28;19917;-68
2021/03/15 09:46:36;;;;;;;;;;;2.90;98.00;;;;;;5036809;28;19909;-69
2021/03/15 09:49:02;;;;;;;;;;;2.90;98.00;;;;;;5037050;28;20046;-69
2021/03/15 09:51:28;;;;;;;;;;;2.90;98.00;;;;;;5036662;28;19917;-68
2021/03/15 09:53:57;;;;;;;;;;;2.90;98.00;;;;;;5036541;28;19924;-68
2021/03/15 09:56:22;;;;;;;;;;;2.90;98.00;;;;;;5036384;28;20214;-68
2021/03/15 09:58:48;;;;;;;;;;;3.00;98.00;;;;;;5035434;28;19924;-68
2021/03/15 10:01:15;;;;;;;;;;;3.00;98.00;;;;;;5047395;28;19913;-68
2021/03/15 10:03:50;;;;;;;;;;;3.00;98.00;;;;;;5038829;28;19992;-70
2021/03/15 10:06:20;;;;;;;;;;;3.00;98.00;;;;;;5036492;28;19916;-70
2021/03/15 10:08:53;;;;;;;;;;;3.00;98.00;;;;;;5036436;28;20260;-69
2021/03/15 10:11:18;;;;;;;;;;;3.00;98.00;;;;;;5036099;28;19928;-69
2021/03/15 10:13:57;;;;;;;;;;;2.90;98.00;;;;;;5035425;28;19917;-70
2021/03/15 10:16:22;;;;;;;;;;;2.90;98.00;;;;;;5036620;28;19995;-69
2021/03/15 10:18:53;;;;;;;;;;;2.90;98.00;;;;;;5035999;28;20003;-70
2021/03/15 10:21:25;;;;;;;;;;;2.80;98.00;;;;;;5037706;28;20314;-69
2021/03/15 10:23:51;;;;;;;;;;;2.70;98.00;;;;;;5036154;28;20302;-69
2021/03/15 10:26:16;;;;;;;;;;;2.80;98.00;;;;;;5036325;28;19919;-70
2021/03/15 10:28:46;;;;;;;;;;;2.80;98.00;;;;;;5035679;28;20003;-70
2021/03/15 10:31:12;;;;;;;;;;;2.90;98.00;;;;;;5035016;28;20009;-68
2021/03/15 10:33:43;;;;;;;;;;;3.00;98.00;;;;;;5035813;28;20019;-70
2021/03/15 10:36:08;;;;;;;;;;;3.00;98.00;;;;;;5036200;28;20040;-69
2021/03/15 10:38:34;;;;;;;;;;;2.90;98.00;;;;;;5034897;28;20031;-69
2021/03/15 10:41:01;;;;;;;;;;;3.00;98.00;;;;;;5035933;28;20018;-69
2021/03/15 10:43:27;;;;;;;;;;;3.00;98.00;;;;;;5035569;28;20004;-70
2021/03/15 10:45:52;;;;;;;;;;;3.00;98.00;;;;;;5034729;28;20000;-70
2021/03/15 10:48:25;;;;;;;;;;;3.00;98.00;;;;;;5033501;28;19913;-69
2021/03/15 10:50:53;;;;;;;;;;;3.00;98.00;;;;;;5035368;28;19913;-70
2021/03/15 10:53:21;;;;;;;;;;;3.10;98.00;;;;;;5033798;28;19913;-69
2021/03/15 10:55:46;;;;;;;;;;;3.20;98.00;;;;;;5033860;28;19909;-69
2021/03/15 10:58:15;;;;;;;;;;;3.30;98.00;;;;;;5017531;28;19966;-69
2021/03/15 11:00:48;;;;;;;;;;;3.40;98.00;;;;;;5034190;28;19920;-69
2021/03/15 11:03:27;;;;;;;;;;;3.50;98.00;;;;;;5033805;28;19913;-67
2021/03/15 11:06:03;;;;;;;;;;;3.50;98.00;;;;;;5035406;28;19909;-67
2021/03/15 11:08:29;;;;;;;;;;;3.50;98.00;;;;;;5035047;28;20199;-68
2021/03/15 11:10:56;;;;;;;;;;;3.60;98.00;;;;;;5035516;28;19916;-68
2021/03/15 11:13:24;;;;;;;;;;;3.60;98.00;;;;;;5035204;28;19913;-70
2021/03/15 11:15:50;;;;;;;;;;;3.70;98.00;;;;;;5034254;28;19920;-68
2021/03/15 11:18:20;;;;;;;;;;;3.90;98.00;;;;;;5035634;28;19909;-68
2021/03/15 11:20:47;;;;;;;;;;;3.90;98.00;;;;;;5033903;28;19936;-67
2021/03/15 11:23:13;;;;;;;;;;;3.80;98.00;;;;;;5034724;28;19917;-70
2021/03/15 11:25:39;;;;;;;;;;;3.90;98.00;;;;;;5018199;28;20220;-69
2021/03/15 11:28:11;;;;;;;;;;;3.90;98.00;;;;;;5035479;28;19914;-69
2021/03/15 11:30:37;;;;;;;;;;;3.80;98.00;;;;;;5033060;28;19913;-69
2021/03/15 11:33:12;;;;;;;;;;;3.80;98.00;;;;;;5035067;28;20008;-68
2021/03/15 11:35:39;;;;;;;;;;;3.70;98.00;;;;;;5035523;28;19920;-68
2021/03/15 11:38:05;;;;;;;;;;;3.70;98.00;;;;;;5035066;28;19917;-68
2021/03/15 11:40:33;;;;;;;;;;;3.70;98.00;;;;;;5035490;28;19932;-69
2021/03/15 11:42:59;;;;;;;;;;;3.70;98.00;;;;;;5035136;28;20199;-69
2021/03/15 11:45:25;;;;;;;;;;;3.70;98.00;;;;;;5034070;28;19909;-68
2021/03/15 11:47:51;;;;;;;;;;;3.60;98.00;;;;;;5035360;28;20004;-70
2021/03/15 11:50:17;;;;;;;;;;;3.60;98.00;;;;;;5035099;28;19971;-70
2021/03/15 11:52:43;;;;;;;;;;;3.50;98.00;;;;;;5038234;28;20225;-69
2021/03/15 11:55:09;;;;;;;;;;;3.30;98.00;;;;;;5032893;28;19917;-71
2021/03/15 11:57:35;;;;;;;;;;;3.20;98.00;;;;;;5030656;28;19918;-69
2021/03/15 12:00:00;;;;;;;;;;;3.00;98.00;;;;;;5037794;28;19909;-71
2021/03/15 12:02:26;;;;;;;;;;;2.90;98.00;;;;;;5038706;28;19913;-70
2021/03/15 12:04:51;;;;;;;;;;;2.60;98.00;;;;;;5039066;28;19909;-70
2021/03/15 12:07:17;;;;;;;;;;;2.50;98.00;;;;;;5038565;28;19915;-70
2021/03/15 12:09:43;;;;;;;;;;;2.60;98.00;;;;;;5036176;28;20283;-69
2021/03/15 12:12:09;;;;;;;;;;;2.80;98.00;;;;;;5038993;28;20273;-69
2021/03/15 12:14:34;;;;;;;;;;;2.80;98.00;;;;;;5037276;28;19924;-70
2021/03/15 12:17:00;;;;;;;;;;;2.80;98.00;;;;;;5038782;28;20008;-69
2021/03/15 12:19:25;;;;;;;;;;;2.80;98.00;;;;;;5020762;28;20258;-70
2021/03/15 12:21:51;;;;;;;;;;;2.90;98.00;;;;;;5037707;28;19917;-69
2021/03/15 12:24:16;;;;;;;;;;;3.00;98.00;;;;;;5038647;28;19920;-69
2021/03/15 12:26:42;;;;;;;;;;;3.10;98.00;;;;;;5038276;28;19941;-70
2021/03/15 12:29:08;;;;;;;;;;;3.20;98.00;;;;;;5032679;28;19960;-69
2021/03/15 12:31:33;;;;;;;;;;;3.20;98.00;;;;;;5037114;28;20348;-68
2021/03/15 12:33:59;;;;;;;;;;;3.30;98.00;;;;;;5039027;28;20372;-69
2021/03/15 12:36:24;;;;;;;;;;;3.30;98.00;;;;;;5058194;28;19967;-69
2021/03/15 12:38:50;;;;;;;;;;;3.10;98.00;;;;;;5042570;28;19967;-69
2021/03/15 12:41:15;;;;;;;;;;;3.00;98.00;;;;;;5037412;28;19975;-69
2021/03/15 12:43:41;;;;;;;;;;;3.00;98.00;;;;;;5029369;28;19921;-70
2021/03/15 12:46:06;;;;;;;;;;;3.10;98.00;;;;;;5036493;28;19916;-70
2021/03/15 12:48:34;;;;;;;;;;;3.10;98.00;;;;;;5034378;28;21310;-68
2021/03/15 12:51:00;;;;;;;;;;;3.10;98.00;;;;;;5036863;28;19964;-68
2021/03/15 12:53:26;;;;;;;;;;;3.20;98.00;;;;;;5037303;28;19948;-69
2021/03/15 12:55:51;;;;;;;;;;;3.20;98.00;;;;;;5036423;28;19913;-68
2021/03/15 12:58:17;;;;;;;;;;;3.20;98.00;;;;;;5037269;28;19921;-70
2021/03/15 13:00:42;;;;;;;;;;;3.20;98.00;;;;;;5041192;28;20213;-69
2021/03/15 13:03:08;;;;;;;;;;;3.30;98.00;;;;;;5044752;28;19920;-70
2021/03/15 13:05:33;;;;;;;;;;;3.20;98.00;;;;;;5037389;28;19909;-70
2021/03/15 13:07:59;;;;;;;;;;;3.20;98.00;;;;;;5037563;28;19917;-70
2021/03/15 13:10:25;;;;;;;;;;;3.30;98.00;;;;;;5037141;28;20051;-70
2021/03/15 13:12:50;;;;;;;;;;;3.40;98.00;;;;;;5021347;28;20301;-70
2021/03/15 13:15:16;;;;;;;;;;;3.40;98.00;;;;;;5035595;28;19989;-70
2021/03/15 13:17:42;;;;;;;;;;;3.40;98.00;;;;;;5037586;28;19909;-71
2021/03/15 13:20:08;;;;;;;;;;;3.30;98.00;;;;;;5029924;28;19920;-72
2021/03/15 13:22:35;;;;;;;;;;;3.20;98.00;;;;;;5036137;28;19917;-70
2021/03/15 13:25:01;;;;;;;;;;;3.30;98.00;;;;;;5032769;28;19957;-71
2021/03/15 13:27:26;;;;;;;;;;;3.40;98.00;;;;;;5030102;28;19960;-71
2021/03/15 13:29:53;;;;;;;;;;;3.60;98.00;;;;;;5032543;28;21536;-70
2021/03/15 13:32:19;;;;;;;;;;;3.60;98.00;;;;;;5029548;28;19917;-70
2021/03/15 13:34:44;;;;;;;;;;;3.60;98.00;;;;;;5034542;28;19921;-70
2021/03/15 13:37:10;;;;;;;;;;;3.60;98.00;;;;;;5034355;28;20284;-70
2021/03/15 13:39:35;;;;;;;;;;;3.70;98.00;;;;;;5036904;28;20509;-70
2021/03/15 13:42:01;;;;;;;;;;;3.70;98.00;;;;;;5035258;28;19921;-70
2021/03/15 13:44:26;;;;;;;;;;;3.80;98.00;;;;;;5033307;28;19917;-69
2021/03/15 13:46:52;;;;;;;;;;;3.70;98.00;;;;;;5035410;28;19917;-70
2021/03/15 13:49:17;;;;;;;;;;;3.60;98.00;;;;;;5036280;28;19913;-70
2021/03/15 13:51:43;;;;;;;;;;;3.50;98.00;;;;;;5034828;28;19917;-70
2021/03/15 13:54:08;;;;;;;;;;;3.40;98.00;;;;;;5035196;28;19917;-70
2021/03/15 13:56:34;;;;;;;;;;;3.20;98.00;;;;;;5035986;28;19920;-71
2021/03/15 13:58:59;;;;;;;;;;;3.00;98.00;;;;;;5016503;28;19921;-71
2021/03/15 14:01:28;;;;;;;;;;;2.70;98.00;;;;;;5017528;28;19914;-70
2021/03/15 14:03:53;;;;;;;;;;;2.50;98.00;;;;;;5034994;28;19913;-69
2021/03/15 14:06:21;;;;;;;;;;;2.60;98.00;;;;;;5035210;28;19929;-70
2021/03/15 14:08:48;;;;;;;;;;;2.90;98.00;;;;;;5035494;28;19920;-69
2021/03/15 14:11:13;;;;;;;;;;;3.10;98.00;;;;;;5035153;28;19917;-70
2021/03/15 14:13:39;;;;;;;;;;;3.40;98.00;;;;;;5034307;28;20314;-71
2021/03/15 14:16:04;;;;;;;;;;;3.80;98.00;;;;;;5034346;28;19913;-72
2021/03/15 14:18:30;;;;;;;;;;;4.30;98.00;;;;;;5034461;28;19940;-70
2021/03/15 14:20:55;;;;;;;;;;;4.60;98.00;;;;;;5034555;28;19978;-68
2021/03/15 14:23:21;;;;;;;;;;;4.70;98.00;;;;;;5028748;28;20302;-69
2021/03/15 14:25:46;;;;;;;;;;;4.90;98.00;;;;;;5027806;28;19921;-69
2021/03/15 14:28:13;;;;;;;;;;;5.00;98.00;;;;;;5030507;28;20261;-68
2021/03/15 14:30:39;;;;;;;;;;;5.20;98.00;;;;;;5034436;28;19996;-69
2021/03/15 14:33:05;;;;;;;;;;;5.40;98.00;;;;;;5034727;28;20266;-70
2021/03/15 14:35:31;;;;;;;;;;;5.70;98.00;;;;;;5035811;28;19924;-69